createdAt,value
2018-12-09T00:01:26.903Z,3.80
2018-12-09T00:03:59.064Z,0.60
2018-12-09T00:06:31.614Z,0.50
2018-12-09T00:09:02.153Z,0.57
2018-12-09T00:11:34.395Z,0.90
2018-12-09T00:14:04.478Z,1.30
2018-12-09T00:16:34.457Z,0.53
2018-12-09T00:19:05.180Z,0.50
2018-12-09T00:21:36.093Z,0.60
2018-12-09T00:24:06.209Z,0.50
2018-12-09T00:26:36.324Z,0.60
2018-12-09T00:29:06.385Z,0.70
2018-12-09T00:31:36.448Z,1.43
2018-12-09T00:34:06.525Z,0.67
2018-12-09T00:36:36.554Z,0.60
2018-12-09T00:39:07.675Z,0.70
2018-12-09T00:41:38.006Z,0.60
2018-12-09T00:44:07.934Z,1.43
2018-12-09T00:46:38.055Z,1.73
2018-12-09T00:49:08.081Z,0.60
2018-12-09T00:51:38.116Z,0.80
2018-12-09T00:54:08.186Z,0.60
2018-12-09T00:56:38.650Z,0.90
2018-12-09T00:59:08.901Z,0.70
2018-12-09T01:01:39.756Z,0.80
2018-12-09T01:04:09.607Z,2.20
2018-12-09T01:06:39.610Z,0.60
2018-12-09T01:09:10.222Z,0.60
2018-12-09T01:11:42.270Z,0.90
2018-12-09T01:14:12.363Z,0.90
2018-12-09T01:16:44.077Z,0.70
2018-12-09T01:19:14.302Z,0.60
2018-12-09T01:21:44.752Z,0.60
2018-12-09T01:24:14.729Z,0.57
2018-12-09T01:26:44.824Z,0.60
2018-12-09T01:29:14.898Z,0.70
2018-12-09T01:31:44.918Z,0.60
2018-12-09T01:34:15.394Z,0.83
2018-12-09T01:36:45.411Z,0.60
2018-12-09T01:39:16.648Z,0.67
2018-12-09T01:41:46.846Z,1.17
2018-12-09T01:44:17.380Z,0.50
2018-12-09T01:46:47.474Z,0.50
2018-12-09T01:49:17.757Z,0.60
2018-12-09T01:51:47.764Z,1.10
2018-12-09T01:54:19.314Z,0.60
2018-12-09T01:56:49.335Z,0.70
2018-12-09T01:59:19.515Z,0.50
2018-12-09T02:01:49.830Z,0.50
2018-12-09T02:04:20.370Z,0.60
2018-12-09T02:06:50.801Z,0.63
2018-12-09T02:09:20.983Z,0.50
2018-12-09T02:11:51.329Z,0.40
2018-12-09T02:14:21.627Z,0.60
2018-12-09T02:16:51.750Z,0.50
2018-12-09T02:19:23.250Z,0.67
2018-12-09T02:21:53.789Z,3.13
2018-12-09T02:24:24.388Z,10.03
2018-12-09T02:26:54.421Z,0.70
2018-12-09T02:29:24.605Z,1.80
2018-12-09T02:31:54.604Z,0.90
2018-12-09T02:34:24.845Z,0.63
2018-12-09T02:36:55.020Z,0.50
2018-12-09T02:39:26.310Z,0.53
2018-12-09T02:41:56.450Z,0.50
2018-12-09T02:44:28.069Z,0.50
2018-12-09T02:46:58.652Z,0.80
2018-12-09T02:49:28.744Z,0.60
2018-12-09T02:51:59.046Z,0.50
2018-12-09T02:54:29.530Z,1.33
2018-12-09T02:56:59.567Z,1.73
2018-12-09T02:59:30.002Z,0.83
2018-12-09T03:02:00.811Z,1.53
2018-12-09T03:04:30.947Z,0.70
2018-12-09T03:07:01.618Z,0.67
2018-12-09T03:09:31.882Z,0.60
2018-12-09T03:12:02.252Z,3.33
2018-12-09T03:14:32.447Z,1.90
2018-12-09T03:17:03.049Z,0.60
2018-12-09T03:19:33.386Z,2.10
2018-12-09T03:22:03.659Z,0.60
2018-12-09T03:24:34.290Z,0.60
2018-12-09T03:27:04.974Z,3.93
2018-12-09T03:29:35.243Z,0.60
2018-12-09T03:32:05.740Z,0.57
2018-12-09T03:34:36.340Z,0.60
2018-12-09T03:37:06.565Z,1.00
2018-12-09T03:39:37.864Z,1.03
2018-12-09T03:42:07.921Z,0.80
2018-12-09T03:44:38.706Z,1.43
2018-12-09T03:47:09.076Z,1.20
2018-12-09T03:49:39.108Z,1.37
2018-12-09T03:52:09.019Z,0.60
2018-12-09T03:54:39.586Z,0.60
2018-12-09T03:57:09.633Z,0.93
2018-12-09T03:59:39.629Z,3.30
2018-12-09T04:02:09.816Z,1.87
2018-12-09T04:04:39.827Z,8.23
2018-12-09T04:07:09.841Z,6.80
2018-12-09T04:09:39.810Z,2.30
2018-12-09T04:12:09.689Z,3.27
2018-12-09T04:14:39.618Z,7.60
2018-12-09T04:17:09.667Z,5.63
2018-12-09T04:19:39.737Z,5.40
2018-12-09T04:22:09.801Z,6.20
2018-12-09T04:24:39.877Z,6.23
2018-12-09T04:27:10.037Z,5.77
2018-12-09T04:29:40.121Z,8.63
2018-12-09T04:32:10.167Z,8.27
2018-12-09T04:34:40.022Z,10.57
2018-12-09T04:37:10.477Z,6.60
2018-12-09T04:39:40.560Z,8.60
2018-12-09T04:42:10.985Z,9.07
2018-12-09T04:44:41.101Z,5.33
2018-12-09T04:47:11.269Z,6.80
2018-12-09T04:49:41.210Z,10.53
2018-12-09T04:52:11.120Z,6.97
2018-12-09T04:54:41.156Z,14.50
2018-12-09T04:57:11.283Z,8.40
2018-12-09T04:59:48.174Z,9.47
2018-12-09T05:02:18.209Z,7.07
2018-12-09T05:04:48.456Z,4.67
2018-12-09T05:07:18.910Z,7.40
2018-12-09T05:09:49.242Z,6.30
2018-12-09T05:12:19.725Z,15.17
2018-12-09T05:14:49.843Z,6.20
2018-12-09T05:17:20.841Z,11.27
2018-12-09T05:19:51.130Z,3.73
2018-12-09T05:22:21.357Z,10.30
2018-12-09T05:24:51.400Z,7.10
2018-12-09T05:27:21.568Z,4.70
2018-12-09T05:29:51.713Z,11.20
2018-12-09T05:32:21.817Z,5.60
2018-12-09T05:34:51.988Z,3.80
2018-12-09T05:37:25.276Z,3.37
2018-12-09T05:39:56.385Z,9.13
2018-12-09T05:42:26.430Z,5.13
2018-12-09T05:44:56.428Z,6.47
2018-12-09T05:47:26.443Z,5.87
2018-12-09T05:49:56.771Z,12.40
2018-12-09T05:52:26.790Z,6.07
2018-12-09T05:54:57.192Z,4.60
2018-12-09T05:57:27.147Z,3.33
2018-12-09T05:59:57.179Z,1.67
2018-12-09T06:02:38.002Z,5.90
2018-12-09T06:05:08.237Z,3.83
2018-12-09T06:07:38.448Z,3.27
2018-12-09T06:10:08.774Z,3.03
2018-12-09T06:12:38.784Z,3.13
2018-12-09T06:15:09.052Z,4.17
2018-12-09T06:17:39.019Z,4.10
2018-12-09T06:20:08.954Z,2.70
2018-12-09T06:22:38.847Z,4.70
2018-12-09T06:25:08.793Z,5.57
2018-12-09T06:27:38.596Z,1.53
2018-12-09T06:30:10.714Z,2.70
2018-12-09T06:32:41.062Z,1.53
2018-12-09T06:35:11.123Z,6.93
2018-12-09T06:37:41.613Z,2.00
2018-12-09T06:40:11.531Z,5.13
2018-12-09T06:42:41.573Z,7.60
2018-12-09T06:45:12.066Z,2.90
2018-12-09T06:47:42.403Z,5.30
2018-12-09T06:50:12.663Z,2.90
2018-12-09T06:52:43.461Z,3.70
2018-12-09T06:55:13.708Z,5.80
2018-12-09T06:57:43.787Z,5.13
2018-12-09T07:00:13.840Z,3.47
2018-12-09T07:02:44.031Z,2.87
2018-12-09T07:05:14.262Z,4.00
2018-12-09T07:07:44.179Z,0.90
2018-12-09T07:10:14.907Z,1.67
2018-12-09T07:12:44.804Z,3.40
2018-12-09T07:15:16.329Z,1.53
2018-12-09T07:17:46.410Z,3.80
2018-12-09T07:20:17.181Z,0.70
2018-12-09T07:22:47.081Z,1.93
2018-12-09T07:25:17.228Z,1.20
2018-12-09T07:27:47.134Z,2.30
2018-12-09T07:30:17.323Z,1.13
2018-12-09T07:32:47.559Z,5.80
2018-12-09T07:35:17.479Z,2.30
2018-12-09T07:37:47.556Z,1.47
2018-12-09T07:40:17.565Z,6.20
2018-12-09T07:42:47.708Z,9.90
2018-12-09T07:45:17.799Z,1.80
2018-12-09T07:47:48.110Z,6.70
2018-12-09T07:50:17.920Z,1.93
2018-12-09T07:52:48.560Z,0.70
2018-12-09T07:55:18.736Z,0.83
2018-12-09T07:57:48.686Z,1.43
2018-12-09T08:00:18.739Z,1.30
2018-12-09T08:02:48.609Z,0.80
2018-12-09T08:05:18.856Z,0.90
2018-12-09T08:07:48.931Z,2.50
2018-12-09T08:10:18.979Z,1.27
2018-12-09T08:12:48.849Z,0.70
2018-12-09T08:15:18.924Z,1.27
2018-12-09T08:17:48.961Z,2.87
2018-12-09T08:20:19.217Z,7.90
2018-12-09T08:22:49.333Z,3.60
2018-12-09T08:25:20.355Z,3.00
2018-12-09T08:27:51.021Z,3.50
2018-12-09T08:30:21.111Z,6.37
2018-12-09T08:32:51.296Z,10.83
2018-12-09T08:35:21.672Z,5.00
2018-12-09T08:37:52.157Z,5.93
2018-12-09T08:40:22.129Z,10.00
2018-12-09T08:42:52.367Z,7.33
2018-12-09T08:45:22.812Z,16.67
2018-12-09T08:47:53.243Z,10.23
2018-12-09T08:50:23.452Z,10.67
2018-12-09T08:52:53.489Z,6.73
2018-12-09T08:55:23.611Z,8.17
2018-12-09T08:57:53.745Z,10.07
2018-12-09T09:00:23.864Z,8.40
2018-12-09T09:02:53.968Z,5.10
2018-12-09T09:05:24.114Z,11.30
2018-12-09T09:07:54.169Z,2.10
2018-12-09T09:10:24.235Z,1.37
2018-12-09T09:12:54.276Z,4.37
2018-12-09T09:15:24.278Z,2.53
2018-12-09T09:17:54.634Z,6.17
2018-12-09T09:20:25.168Z,3.60
2018-12-09T09:22:55.316Z,3.47
2018-12-09T09:25:25.757Z,6.10
2018-12-09T09:27:56.760Z,3.37
2018-12-09T09:30:26.870Z,11.73
2018-12-09T09:32:56.925Z,5.00
2018-12-09T09:35:27.322Z,3.60
2018-12-09T09:37:57.712Z,12.50
2018-12-09T09:40:27.784Z,4.00
2018-12-09T09:42:57.894Z,4.70
2018-12-09T09:45:28.635Z,6.10
2018-12-09T09:47:59.096Z,5.27
2018-12-09T09:50:29.615Z,5.17
2018-12-09T09:52:59.596Z,2.50
2018-12-09T09:55:29.694Z,4.60
2018-12-09T09:58:00.387Z,6.67
2018-12-09T10:00:31.573Z,5.77
2018-12-09T10:03:01.676Z,8.83
2018-12-09T10:05:31.731Z,5.93
2018-12-09T10:08:01.888Z,8.50
2018-12-09T10:10:31.932Z,4.50
2018-12-09T10:13:02.013Z,4.40
2018-12-09T10:15:32.070Z,9.03
2018-12-09T10:18:02.751Z,9.07
2018-12-09T10:20:32.876Z,18.67
2018-12-09T10:23:02.994Z,7.60
2018-12-09T10:25:32.993Z,17.80
2018-12-09T10:28:04.616Z,7.77
2018-12-09T10:30:34.602Z,8.80
2018-12-09T10:33:04.705Z,7.13
2018-12-09T10:35:35.318Z,8.93
2018-12-09T10:38:06.295Z,9.57
2018-12-09T10:40:36.503Z,6.57
2018-12-09T10:43:06.999Z,9.73
2018-12-09T10:45:36.999Z,6.20
2018-12-09T10:48:07.037Z,5.50
2018-12-09T10:50:37.142Z,4.43
2018-12-09T10:53:07.409Z,14.23
2018-12-09T10:55:37.600Z,29.20
2018-12-09T10:58:08.144Z,85.83
2018-12-09T11:00:43.548Z,82.30
2018-12-09T11:03:13.665Z,6.57
2018-12-09T11:05:43.875Z,2.50
2018-12-09T11:08:14.206Z,8.40
2018-12-09T11:10:44.307Z,8.03
2018-12-09T11:13:14.402Z,12.97
2018-12-09T11:15:44.762Z,13.20
2018-12-09T11:18:14.903Z,5.30
2018-12-09T11:20:45.523Z,18.47
2018-12-09T11:23:15.795Z,11.47
2018-12-09T11:25:46.234Z,5.57
2018-12-09T11:28:16.460Z,16.30
2018-12-09T11:30:47.160Z,10.33
2018-12-09T11:33:17.193Z,13.80
2018-12-09T11:35:47.746Z,16.33
2018-12-09T11:38:17.976Z,11.80
2018-12-09T11:40:48.405Z,8.53
2018-12-09T11:43:19.050Z,6.83
2018-12-09T11:45:49.681Z,7.23
2018-12-09T11:48:20.418Z,10.77
2018-12-09T11:50:50.761Z,11.53
2018-12-09T11:53:20.977Z,19.77
2018-12-09T11:55:51.543Z,12.50
2018-12-09T11:58:21.857Z,15.10
2018-12-09T12:00:52.352Z,9.33
2018-12-09T12:03:22.902Z,15.00
2018-12-09T12:05:52.999Z,10.10
2018-12-09T12:08:23.009Z,5.50
2018-12-09T12:10:53.527Z,10.57
2018-12-09T12:13:24.042Z,18.60
2018-12-09T12:15:54.361Z,24.80
2018-12-09T12:18:24.343Z,30.23
2018-12-09T12:20:54.585Z,12.20
2018-12-09T12:23:25.263Z,19.23
2018-12-09T12:25:55.751Z,6.93
2018-12-09T12:28:26.291Z,23.97
2018-12-09T12:30:56.438Z,14.60
2018-12-09T12:33:26.507Z,13.10
2018-12-09T12:35:56.815Z,9.70
2018-12-09T12:38:27.336Z,18.37
2018-12-09T12:40:57.474Z,11.10
2018-12-09T12:43:28.737Z,10.87
2018-12-09T12:45:58.929Z,5.20
2018-12-09T12:48:29.067Z,10.23
2018-12-09T12:50:59.558Z,13.00
2018-12-09T12:53:29.672Z,6.33
2018-12-09T12:55:59.775Z,9.00
2018-12-09T12:58:30.113Z,19.73
2018-12-09T13:01:00.541Z,9.40
2018-12-09T13:03:32.630Z,8.60
2018-12-09T13:06:02.858Z,3.57
2018-12-09T13:08:33.337Z,7.27
2018-12-09T13:11:04.088Z,10.83
2018-12-09T13:13:34.374Z,3.90
2018-12-09T13:16:05.894Z,12.50
2018-12-09T13:18:36.323Z,2.83
2018-12-09T13:21:06.435Z,1.20
2018-12-09T13:23:36.516Z,8.47
2018-12-09T13:26:06.905Z,7.20
2018-12-09T13:28:37.031Z,1.80
2018-12-09T13:31:07.085Z,1.40
2018-12-09T13:33:38.210Z,1.87
2018-12-09T13:36:08.526Z,2.10
2018-12-09T13:38:39.014Z,2.00
2018-12-09T13:41:11.097Z,3.57
2018-12-09T13:43:41.129Z,3.53
2018-12-09T13:46:11.255Z,1.03
2018-12-09T13:48:41.358Z,3.00
2018-12-09T13:51:11.696Z,2.80
2018-12-09T13:53:41.841Z,5.40
2018-12-09T13:56:12.006Z,1.10
2018-12-09T13:58:41.994Z,3.00
2018-12-09T14:01:12.135Z,0.80
2018-12-09T14:03:42.064Z,0.97
2018-12-09T14:06:12.062Z,1.60
2018-12-09T14:08:42.162Z,2.40
2018-12-09T14:11:12.489Z,0.63
2018-12-09T14:13:42.465Z,2.00
2018-12-09T14:16:12.881Z,1.90
2018-12-09T14:18:43.172Z,0.60
2018-12-09T14:21:13.186Z,1.07
2018-12-09T14:23:43.385Z,0.87
2018-12-09T14:26:13.334Z,19.07
2018-12-09T14:28:43.479Z,1.20
2018-12-09T14:31:13.609Z,0.80
2018-12-09T14:33:43.805Z,8.07
2018-12-09T14:36:13.939Z,0.70
2018-12-09T14:38:44.269Z,2.93
2018-12-09T14:41:14.408Z,1.00
2018-12-09T14:43:44.712Z,2.90
2018-12-09T14:46:15.061Z,1.93
2018-12-09T14:48:45.090Z,2.77
2018-12-09T14:51:16.025Z,3.80
2018-12-09T14:53:46.086Z,2.10
2018-12-09T14:56:16.414Z,2.60
2018-12-09T14:58:46.365Z,1.57
2018-12-09T15:01:16.123Z,2.70
2018-12-09T15:03:48.022Z,2.03
2018-12-09T15:06:18.182Z,2.70
2018-12-09T15:08:48.477Z,3.67
2018-12-09T15:11:19.950Z,0.80
2018-12-09T15:13:50.458Z,1.40
2018-12-09T15:16:20.585Z,1.07
2018-12-09T15:18:50.726Z,1.70
2018-12-09T15:21:21.102Z,2.70
2018-12-09T15:23:51.725Z,1.60
2018-12-09T15:26:21.995Z,3.90
2018-12-09T15:28:52.505Z,1.10
2018-12-09T15:31:22.684Z,4.17
2018-12-09T15:33:52.847Z,1.30
2018-12-09T15:36:23.020Z,1.57
2018-12-09T15:38:53.281Z,1.70
2018-12-09T15:41:23.647Z,3.00
2018-12-09T15:43:54.366Z,0.80
2018-12-09T15:46:24.420Z,0.70
2018-12-09T15:48:54.765Z,4.30
2018-12-09T15:51:25.006Z,1.00
2018-12-09T15:53:56.998Z,1.10
2018-12-09T15:56:27.110Z,1.13
2018-12-09T15:58:57.262Z,1.00
2018-12-09T16:01:27.602Z,1.20
2018-12-09T16:03:58.247Z,0.90
2018-12-09T16:06:28.616Z,1.50
2018-12-09T16:08:58.691Z,0.80
2018-12-09T16:11:29.079Z,0.80
2018-12-09T16:13:59.406Z,1.00
2018-12-09T16:16:30.119Z,3.23
2018-12-09T16:19:00.507Z,1.77
2018-12-09T16:21:31.454Z,2.40
2018-12-09T16:24:01.848Z,4.77
2018-12-09T16:26:33.480Z,1.17
2018-12-09T16:29:03.565Z,1.10
2018-12-09T16:31:33.936Z,0.73
2018-12-09T16:34:04.351Z,2.67
2018-12-09T16:36:34.308Z,2.13
2018-12-09T16:39:07.554Z,1.63
2018-12-09T16:41:37.642Z,1.10
2018-12-09T16:44:07.824Z,1.00
2018-12-09T16:46:38.765Z,0.60
2018-12-09T16:49:09.186Z,1.00
2018-12-09T16:51:39.822Z,0.80
2018-12-09T16:54:09.944Z,1.73
2018-12-09T16:56:40.666Z,1.03
2018-12-09T16:59:10.736Z,1.07
2018-12-09T17:01:41.106Z,1.40
2018-12-09T17:04:11.126Z,1.33
2018-12-09T17:06:41.290Z,4.50
2018-12-09T17:09:11.396Z,3.60
2018-12-09T17:11:41.565Z,2.33
2018-12-09T17:14:11.635Z,16.60
2018-12-09T17:16:41.743Z,6.37
2018-12-09T17:19:12.050Z,1.40
2018-12-09T17:21:42.104Z,3.77
2018-12-09T17:24:12.295Z,10.30
2018-12-09T17:26:42.437Z,2.23
2018-12-09T17:29:12.652Z,41.70
2018-12-09T17:31:42.993Z,1.83
2018-12-09T17:34:13.139Z,1.90
2018-12-09T17:36:43.539Z,3.50
2018-12-09T17:39:13.986Z,1.30
2018-12-09T17:41:44.050Z,0.87
2018-12-09T17:44:14.129Z,0.87
2018-12-09T17:46:44.179Z,0.83
2018-12-09T17:49:14.324Z,1.03
2018-12-09T17:51:44.356Z,0.93
2018-12-09T17:54:14.909Z,1.00
2018-12-09T17:56:44.766Z,0.60
2018-12-09T17:59:15.020Z,0.90
2018-12-09T18:01:45.306Z,3.33
2018-12-09T18:04:15.936Z,2.10
2018-12-09T18:06:46.234Z,1.00
2018-12-09T18:09:16.615Z,1.80
2018-12-09T18:11:47.261Z,1.57
2018-12-09T18:14:18.298Z,1.23
2018-12-09T18:16:48.548Z,2.10
2018-12-09T18:19:18.741Z,2.10
2018-12-09T18:21:48.892Z,1.07
2018-12-09T18:24:19.303Z,0.70
2018-12-09T18:26:49.784Z,1.20
2018-12-09T18:29:20.030Z,0.70
2018-12-09T18:31:52.085Z,1.07
2018-12-09T18:34:23.350Z,0.90
2018-12-09T18:36:53.955Z,0.70
2018-12-09T18:39:24.432Z,2.07
2018-12-09T18:41:54.520Z,1.20
2018-12-09T18:44:25.661Z,3.40
2018-12-09T18:46:55.821Z,2.57
2018-12-09T18:49:25.927Z,2.43
2018-12-09T18:51:55.987Z,0.70
2018-12-09T18:54:26.086Z,1.93
2018-12-09T18:56:56.299Z,1.37
2018-12-09T18:59:26.436Z,2.73
2018-12-09T19:01:56.628Z,0.90
2018-12-09T19:04:26.945Z,1.10
2018-12-09T19:06:57.292Z,2.30
2018-12-09T19:09:27.463Z,1.03
2018-12-09T19:11:58.139Z,1.20
2018-12-09T19:14:28.356Z,2.00
2018-12-09T19:16:58.818Z,1.90
2018-12-09T19:19:28.895Z,0.90
2018-12-09T19:21:59.155Z,0.90
2018-12-09T19:24:29.751Z,1.73
2018-12-09T19:27:00.388Z,2.67
2018-12-09T19:29:30.933Z,0.77
2018-12-09T19:32:02.187Z,2.30
2018-12-09T19:34:32.645Z,1.10
2018-12-09T19:37:02.761Z,2.73
2018-12-09T19:39:33.304Z,2.40
2018-12-09T19:42:04.160Z,1.10
2018-12-09T19:44:34.771Z,2.20
2018-12-09T19:47:05.007Z,2.87
2018-12-09T19:49:36.319Z,0.80
2018-12-09T19:52:06.510Z,1.07
2018-12-09T19:54:37.027Z,3.73
2018-12-09T19:57:07.047Z,6.03
2018-12-09T19:59:37.314Z,1.57
2018-12-09T20:02:07.778Z,0.60
2018-12-09T20:04:37.964Z,1.47
2018-12-09T20:07:08.201Z,0.80
2018-12-09T20:09:38.773Z,0.80
2018-12-09T20:12:09.191Z,0.60
2018-12-09T20:14:41.367Z,3.13
2018-12-09T20:17:11.759Z,2.87
2018-12-09T20:19:41.862Z,0.70
2018-12-09T20:22:11.982Z,0.73
2018-12-09T20:24:42.199Z,0.83
2018-12-09T20:27:12.719Z,0.60
2018-12-09T20:29:42.746Z,1.13
2018-12-09T20:32:12.625Z,0.70
2018-12-09T20:34:42.660Z,0.53
2018-12-09T20:37:12.941Z,0.77
2018-12-09T20:39:43.636Z,0.70
2018-12-09T20:42:14.235Z,1.80
2018-12-09T20:44:44.457Z,0.80
2018-12-09T20:47:14.622Z,0.87
2018-12-09T20:49:44.644Z,1.13
2018-12-09T20:52:14.722Z,0.73
2018-12-09T20:54:44.871Z,0.60
2018-12-09T20:57:15.226Z,0.70
2018-12-09T20:59:45.311Z,1.60
2018-12-09T21:02:15.401Z,0.83
2018-12-09T21:04:45.810Z,0.70
2018-12-09T21:07:16.035Z,0.87
2018-12-09T21:09:46.049Z,0.80
2018-12-09T21:12:16.464Z,3.87
2018-12-09T21:14:46.546Z,1.03
2018-12-09T21:17:16.622Z,0.60
2018-12-09T21:19:47.049Z,0.97
2018-12-09T21:22:17.285Z,1.37
2018-12-09T21:24:47.334Z,0.80
2018-12-09T21:27:17.746Z,0.90
2018-12-09T21:29:47.780Z,1.33
2018-12-09T21:32:17.609Z,0.83
2018-12-09T21:34:47.635Z,0.80
2018-12-09T21:37:17.848Z,0.70
2018-12-09T21:39:48.010Z,0.60
2018-12-09T21:42:18.252Z,2.93
2018-12-09T21:44:48.608Z,0.60
2018-12-09T21:47:19.070Z,0.50
2018-12-09T21:49:49.122Z,0.80
2018-12-09T21:52:19.051Z,0.70
2018-12-09T21:54:49.378Z,0.80
2018-12-09T21:57:19.454Z,0.70
2018-12-09T21:59:49.604Z,0.80
2018-12-09T22:02:21.998Z,0.70
2018-12-09T22:04:52.473Z,0.77
2018-12-09T22:07:22.559Z,1.53
2018-12-09T22:09:52.766Z,3.50
2018-12-09T22:12:22.960Z,0.40
2018-12-09T22:14:53.458Z,0.50
2018-12-09T22:17:23.459Z,0.83
2018-12-09T22:19:53.843Z,0.80
2018-12-09T22:22:24.980Z,0.70
2018-12-09T22:24:55.005Z,0.70
2018-12-09T22:27:25.371Z,1.07
2018-12-09T22:29:55.433Z,0.93
2018-12-09T22:32:25.511Z,2.20
2018-12-09T22:34:55.471Z,0.70
2018-12-09T22:37:25.483Z,0.80
2018-12-09T22:39:56.420Z,0.70
2018-12-09T22:42:26.341Z,1.30
2018-12-09T22:44:56.378Z,0.80
2018-12-09T22:47:26.744Z,1.20
2018-12-09T22:49:57.073Z,0.70
2018-12-09T22:52:27.041Z,1.03
2018-12-09T22:54:57.238Z,1.13
2018-12-09T22:57:27.495Z,2.10
2018-12-09T22:59:58.270Z,1.90
2018-12-09T23:02:33.371Z,1.03
2018-12-09T23:05:04.878Z,0.80
2018-12-09T23:07:40.075Z,1.50
2018-12-09T23:10:10.049Z,0.87
2018-12-09T23:12:40.089Z,1.63
2018-12-09T23:15:10.208Z,1.10
2018-12-09T23:17:40.284Z,0.77
2018-12-09T23:20:10.341Z,3.70
2018-12-09T23:22:40.571Z,3.27
2018-12-09T23:25:10.513Z,1.03
2018-12-09T23:27:40.581Z,1.77
2018-12-09T23:30:11.045Z,1.20
2018-12-09T23:32:41.217Z,1.50
2018-12-09T23:35:12.321Z,1.00
2018-12-09T23:37:42.915Z,1.77
2018-12-09T23:40:13.148Z,1.37
2018-12-09T23:42:43.207Z,0.60
2018-12-09T23:45:13.268Z,0.83
2018-12-09T23:47:43.711Z,0.80
2018-12-09T23:50:13.705Z,0.93
2018-12-09T23:52:43.934Z,0.90
2018-12-09T23:55:14.166Z,1.47
2018-12-09T23:57:44.427Z,0.70
